createdAt,value
2018-09-10T00:01:14.296Z,5.80
2018-09-10T00:03:42.151Z,4.20
2018-09-10T00:06:10.623Z,4.20
2018-09-10T00:08:38.684Z,3.70
2018-09-10T00:11:06.773Z,4.90
2018-09-10T00:13:34.792Z,3.90
2018-09-10T00:16:02.728Z,6.80
2018-09-10T00:18:30.401Z,5.58
2018-09-10T00:20:58.237Z,4.72
2018-09-10T00:23:25.756Z,5.93
2018-09-10T00:25:53.818Z,3.92
2018-09-10T00:28:22.251Z,4.53
2018-09-10T00:30:50.123Z,6.05
2018-09-10T00:33:17.852Z,4.97
2018-09-10T00:35:45.557Z,4.12
2018-09-10T00:38:13.331Z,5.37
2018-09-10T00:40:41.060Z,9.03
2018-09-10T00:43:08.684Z,4.10
2018-09-10T00:45:36.604Z,5.30
2018-09-10T00:48:04.366Z,7.50
2018-09-10T00:50:32.048Z,4.75
2018-09-10T00:52:59.952Z,7.75
2018-09-10T00:55:27.693Z,5.90
2018-09-10T00:57:55.333Z,7.42
2018-09-10T01:00:22.920Z,6.40
2018-09-10T01:02:50.532Z,3.42
2018-09-10T01:05:18.071Z,4.37
2018-09-10T01:07:45.872Z,5.23
2018-09-10T01:10:13.772Z,5.25
2018-09-10T01:12:41.429Z,3.62
2018-09-10T01:15:09.289Z,4.67
2018-09-10T01:17:38.031Z,6.20
2018-09-10T01:20:06.118Z,5.40
2018-09-10T01:22:34.010Z,4.80
2018-09-10T01:25:02.846Z,6.33
2018-09-10T01:27:30.780Z,4.10
2018-09-10T01:29:58.692Z,3.83
2018-09-10T01:32:26.604Z,5.90
2018-09-10T01:35:00.607Z,8.33
2018-09-10T01:37:28.263Z,7.75
2018-09-10T01:39:56.127Z,4.70
2018-09-10T01:42:23.995Z,6.00
2018-09-10T01:44:51.900Z,5.90
2018-09-10T01:47:19.863Z,7.83
2018-09-10T01:49:47.523Z,5.30
2018-09-10T01:52:15.914Z,6.10
2018-09-10T01:54:43.532Z,8.03
2018-09-10T01:57:10.913Z,5.03
2018-09-10T01:59:38.619Z,6.33
2018-09-10T02:02:06.320Z,7.22
2018-09-10T02:04:34.585Z,5.97
2018-09-10T02:07:02.314Z,4.90
2018-09-10T02:09:31.226Z,5.67
2018-09-10T02:11:59.438Z,4.60
2018-09-10T02:14:27.021Z,9.75
2018-09-10T02:16:54.947Z,4.90
2018-09-10T02:19:22.623Z,6.75
2018-09-10T02:21:50.378Z,9.10
2018-09-10T02:24:18.027Z,6.90
2018-09-10T02:26:46.174Z,3.80
2018-09-10T02:29:13.631Z,8.30
2018-09-10T02:31:41.032Z,5.45
2018-09-10T02:34:08.656Z,5.80
2018-09-10T02:36:36.392Z,7.00
2018-09-10T02:39:04.910Z,4.70
2018-09-10T02:41:33.551Z,5.05
2018-09-10T02:44:01.199Z,6.15
2018-09-10T02:46:28.932Z,10.00
2018-09-10T02:48:56.516Z,5.50
2018-09-10T02:51:24.110Z,6.60
2018-09-10T02:53:51.645Z,7.00
2018-09-10T02:56:19.734Z,6.92
2018-09-10T02:58:47.505Z,11.18
2018-09-10T03:01:15.238Z,6.10
2018-09-10T03:03:42.917Z,8.63
2018-09-10T03:06:11.219Z,6.47
2018-09-10T03:08:38.806Z,5.33
2018-09-10T03:11:06.254Z,9.03
2018-09-10T03:13:33.884Z,6.58
2018-09-10T03:16:01.750Z,8.70
2018-09-10T03:18:29.630Z,4.63
2018-09-10T03:20:57.156Z,7.83
2018-09-10T03:23:24.645Z,8.88
2018-09-10T03:25:52.311Z,8.50
2018-09-10T03:28:20.109Z,6.13
2018-09-10T03:30:48.447Z,6.50
2018-09-10T03:33:16.463Z,7.85
2018-09-10T03:35:44.996Z,5.40
2018-09-10T03:38:13.059Z,8.20
2018-09-10T03:40:40.715Z,7.30
2018-09-10T03:43:08.609Z,5.20
2018-09-10T03:45:36.367Z,8.35
2018-09-10T03:48:03.987Z,8.13
2018-09-10T03:50:32.782Z,10.63
2018-09-10T03:53:00.457Z,9.35
2018-09-10T03:55:27.987Z,12.23
2018-09-10T03:58:01.185Z,7.20
2018-09-10T04:00:29.047Z,8.40
2018-09-10T04:02:56.669Z,8.23
2018-09-10T04:05:24.135Z,8.20
2018-09-10T04:07:51.706Z,9.50
2018-09-10T04:10:19.244Z,11.70
2018-09-10T04:12:47.103Z,7.35
2018-09-10T04:15:14.866Z,8.83
2018-09-10T04:17:42.323Z,8.05
2018-09-10T04:20:11.423Z,10.70
2018-09-10T04:22:41.378Z,7.60
2018-09-10T04:25:08.994Z,9.45
2018-09-10T04:27:38.653Z,10.53
2018-09-10T04:30:08.759Z,11.83
2018-09-10T04:32:36.568Z,8.33
2018-09-10T04:35:04.170Z,8.38
2018-09-10T04:37:31.680Z,9.30
2018-09-10T04:39:59.286Z,9.17
2018-09-10T04:42:26.829Z,9.70
2018-09-10T04:44:54.409Z,9.23
2018-09-10T04:47:22.011Z,11.83
2018-09-10T04:49:50.035Z,15.13
2018-09-10T04:52:18.027Z,10.48
2018-09-10T04:54:45.587Z,10.48
2018-09-10T04:57:13.221Z,11.57
2018-09-10T04:59:43.067Z,10.32
2018-09-10T05:02:13.146Z,11.00
2018-09-10T05:04:43.574Z,15.40
2018-09-10T05:07:13.854Z,12.13
2018-09-10T05:09:44.544Z,12.75
2018-09-10T05:12:14.888Z,10.70
2018-09-10T05:14:45.289Z,13.45
2018-09-10T05:17:15.804Z,11.35
2018-09-10T05:19:46.706Z,11.90
2018-09-10T05:22:18.027Z,7.05
2018-09-10T05:24:49.554Z,10.55
2018-09-10T05:27:21.575Z,8.03
2018-09-10T05:29:51.619Z,10.33
2018-09-10T05:32:22.132Z,7.72
2018-09-10T05:34:52.501Z,12.65
2018-09-10T05:37:23.414Z,11.73
2018-09-10T05:39:55.211Z,8.65
2018-09-10T05:42:27.307Z,8.47
2018-09-10T05:44:57.583Z,10.88
2018-09-10T05:47:27.882Z,10.75
2018-09-10T05:49:57.886Z,13.20
2018-09-10T05:52:27.839Z,15.13
2018-09-10T05:54:57.581Z,18.52
2018-09-10T05:57:27.562Z,14.87
2018-09-10T05:59:56.594Z,16.75
2018-09-10T06:02:25.035Z,10.37
2018-09-10T06:04:54.798Z,15.63
2018-09-10T06:07:23.714Z,17.92
2018-09-10T06:09:53.704Z,16.42
2018-09-10T06:12:24.040Z,10.20
2018-09-10T06:14:53.577Z,17.60
2018-09-10T06:17:23.495Z,15.00
2018-09-10T06:19:52.967Z,16.80
2018-09-10T06:22:23.102Z,24.85
2018-09-10T06:24:52.990Z,20.57
2018-09-10T06:27:22.636Z,14.07
2018-09-10T06:29:52.729Z,11.78
2018-09-10T06:32:22.842Z,14.18
2018-09-10T06:34:52.984Z,14.13
2018-09-10T06:37:23.216Z,20.25
2018-09-10T06:39:55.624Z,18.02
2018-09-10T06:42:28.058Z,18.23
2018-09-10T06:44:58.735Z,17.95
2018-09-10T06:47:28.693Z,29.90
2018-09-10T06:49:58.890Z,16.50
2018-09-10T06:52:29.304Z,21.83
2018-09-10T06:54:59.953Z,16.45
2018-09-10T06:57:30.663Z,19.95
2018-09-10T07:00:00.883Z,26.42
2018-09-10T07:02:31.204Z,15.68
2018-09-10T07:05:02.051Z,16.65
2018-09-10T07:07:32.589Z,12.80
2018-09-10T07:10:03.241Z,9.13
2018-09-10T07:12:33.983Z,9.45
2018-09-10T07:15:04.515Z,7.53
2018-09-10T07:17:35.021Z,6.87
2018-09-10T07:20:06.830Z,7.77
2018-09-10T07:22:38.379Z,6.55
2018-09-10T07:25:10.084Z,5.50
2018-09-10T07:27:42.215Z,6.53
2018-09-10T07:30:12.422Z,13.72
2018-09-10T07:32:42.895Z,5.97
2018-09-10T07:35:14.095Z,4.03
2018-09-10T07:37:44.377Z,7.20
2018-09-10T07:40:14.707Z,4.95
2018-09-10T07:42:44.877Z,7.57
2018-09-10T07:45:14.347Z,5.10
2018-09-10T07:47:42.988Z,3.60
2018-09-10T07:50:13.436Z,4.28
2018-09-10T07:52:41.821Z,5.60
2018-09-10T07:55:11.562Z,5.73
2018-09-10T07:57:40.120Z,5.10
2018-09-10T08:00:10.372Z,6.00
2018-09-10T08:02:40.042Z,5.10
2018-09-10T08:05:08.476Z,4.45
2018-09-10T08:07:38.025Z,11.00
2018-09-10T08:10:07.523Z,6.07
2018-09-10T08:12:37.810Z,5.97
2018-09-10T08:15:06.671Z,5.37
2018-09-10T08:17:36.712Z,5.67
2018-09-10T08:20:04.823Z,9.23
2018-09-10T08:22:34.924Z,5.78
2018-09-10T08:25:05.002Z,4.92
2018-09-10T08:27:34.227Z,6.28
2018-09-10T08:30:04.288Z,4.45
2018-09-10T08:32:32.368Z,3.30
2018-09-10T08:35:00.848Z,6.90
2018-09-10T08:37:30.183Z,4.40
2018-09-10T08:40:00.183Z,6.28
2018-09-10T08:42:28.460Z,3.52
2018-09-10T08:44:58.202Z,4.30
2018-09-10T08:47:27.869Z,3.83
2018-09-10T08:49:57.487Z,3.87
2018-09-10T08:52:25.094Z,5.05
2018-09-10T08:54:53.894Z,7.33
2018-09-10T08:57:22.874Z,4.67
2018-09-10T08:59:51.728Z,5.78
2018-09-10T09:02:21.315Z,3.33
2018-09-10T09:04:52.269Z,3.72
2018-09-10T09:07:21.903Z,3.47
2018-09-10T09:09:51.730Z,2.83
2018-09-10T09:12:21.278Z,5.53
2018-09-10T09:14:50.868Z,5.00
2018-09-10T09:17:20.399Z,4.20
2018-09-10T09:22:31.818Z,4.55
2018-09-10T09:24:59.555Z,4.78
2018-09-10T09:27:27.109Z,8.28
2018-09-10T09:29:54.573Z,6.62
2018-09-10T09:32:22.013Z,3.40
2018-09-10T09:34:55.214Z,4.37
2018-09-10T09:38:26.006Z,5.87
2018-09-10T09:40:59.127Z,10.10
2018-09-10T09:43:31.915Z,7.35
2018-09-10T09:46:04.821Z,3.53
2018-09-10T09:48:32.258Z,3.40
2018-09-10T09:50:59.575Z,2.87
2018-09-10T09:53:28.627Z,4.33
2018-09-10T09:55:56.004Z,5.08
2018-09-10T09:58:23.420Z,6.50
2018-09-10T10:00:56.418Z,3.70
2018-09-10T10:03:29.860Z,7.40
2018-09-10T10:05:57.281Z,7.92
2018-09-10T10:08:25.148Z,7.37
2018-09-10T10:10:52.770Z,3.80
2018-09-10T10:13:20.196Z,4.70
2018-09-10T10:15:48.099Z,5.90
2018-09-10T10:18:15.684Z,6.90
2018-09-10T10:20:43.023Z,5.60
2018-09-10T10:23:10.394Z,5.90
2018-09-10T10:25:37.806Z,10.00
2018-09-10T10:28:05.342Z,9.28
2018-09-10T10:30:33.295Z,9.45
2018-09-10T10:33:00.664Z,6.45
2018-09-10T10:35:28.056Z,4.37
2018-09-10T10:37:55.482Z,4.55
2018-09-10T10:40:22.893Z,7.87
2018-09-10T10:42:50.271Z,7.90
2018-09-10T10:45:17.581Z,6.53
2018-09-10T10:47:44.936Z,5.20
2018-09-10T10:50:12.593Z,8.00
2018-09-10T10:52:40.014Z,6.50
2018-09-10T10:55:07.537Z,4.23
2018-09-10T10:57:35.413Z,7.90
2018-09-10T11:00:02.846Z,7.50
2018-09-10T11:02:30.152Z,7.20
2018-09-10T11:04:57.536Z,7.70
2018-09-10T11:07:25.357Z,6.17
2018-09-10T11:09:52.750Z,5.00
2018-09-10T11:12:20.598Z,6.30
2018-09-10T11:14:48.019Z,4.00
2018-09-10T11:17:15.478Z,3.98
2018-09-10T11:19:42.806Z,8.03
2018-09-10T11:22:10.174Z,5.03
2018-09-10T11:24:37.513Z,3.40
2018-09-10T11:27:04.870Z,4.75
2018-09-10T11:29:32.477Z,4.75
2018-09-10T11:32:00.328Z,6.15
2018-09-10T11:34:27.821Z,6.40
2018-09-10T11:36:55.243Z,5.67
2018-09-10T11:39:23.222Z,5.37
2018-09-10T11:41:51.006Z,6.08
2018-09-10T11:44:18.338Z,4.33
2018-09-10T11:46:45.909Z,4.90
2018-09-10T11:49:13.524Z,8.18
2018-09-10T11:51:40.869Z,4.35
2018-09-10T11:54:08.541Z,4.33
2018-09-10T11:56:35.958Z,3.83
2018-09-10T11:59:03.717Z,7.28
2018-09-10T12:01:31.138Z,4.65
2018-09-10T12:03:58.493Z,7.22
2018-09-10T12:06:25.939Z,6.35
2018-09-10T12:08:53.366Z,8.30
2018-09-10T12:11:21.336Z,7.90
2018-09-10T12:13:49.957Z,8.65
2018-09-10T12:16:18.273Z,6.23
2018-09-10T12:18:45.787Z,7.27
2018-09-10T12:21:13.425Z,5.20
2018-09-10T12:23:41.158Z,9.28
2018-09-10T12:26:08.784Z,6.00
2018-09-10T12:28:36.110Z,6.47
2018-09-10T12:31:03.479Z,8.88
2018-09-10T12:33:32.429Z,8.95
2018-09-10T12:35:59.834Z,11.40
2018-09-10T12:38:28.277Z,6.53
2018-09-10T12:40:55.663Z,8.53
2018-09-10T12:43:23.032Z,6.55
2018-09-10T12:45:50.405Z,5.85
2018-09-10T12:48:18.294Z,7.95
2018-09-10T12:50:45.668Z,10.80
2018-09-10T12:53:13.314Z,5.65
2018-09-10T12:55:40.885Z,11.70
2018-09-10T12:58:08.504Z,9.10
2018-09-10T13:00:36.402Z,7.40
2018-09-10T13:03:03.789Z,6.22
2018-09-10T13:05:31.204Z,7.75
2018-09-10T13:07:58.673Z,7.13
2018-09-10T13:10:26.223Z,13.67
2018-09-10T13:12:53.858Z,7.47
2018-09-10T13:15:21.239Z,7.20
2018-09-10T13:17:48.606Z,6.95
2018-09-10T13:20:16.027Z,8.73
2018-09-10T13:22:43.473Z,6.10
2018-09-10T13:25:10.785Z,5.83
2018-09-10T13:27:38.105Z,8.63
2018-09-10T13:30:06.221Z,9.40
2018-09-10T13:32:33.871Z,5.63
2018-09-10T13:35:02.201Z,6.25
2018-09-10T13:37:29.667Z,10.30
2018-09-10T13:39:57.136Z,7.85
2018-09-10T13:42:24.928Z,7.67
2018-09-10T13:44:52.982Z,7.03
2018-09-10T13:47:20.389Z,8.15
2018-09-10T13:49:48.858Z,7.90
2018-09-10T13:52:16.247Z,8.07
2018-09-10T13:54:43.581Z,6.30
2018-09-10T13:57:11.195Z,8.60
2018-09-10T13:59:38.891Z,8.88
2018-09-10T14:02:07.113Z,6.60
2018-09-10T14:04:34.450Z,6.87
2018-09-10T14:07:01.812Z,6.40
2018-09-10T14:09:29.194Z,9.30
2018-09-10T14:11:56.772Z,10.70
2018-09-10T14:14:24.948Z,9.00
2018-09-10T14:16:52.296Z,8.05
2018-09-10T14:19:20.461Z,9.28
2018-09-10T14:21:48.184Z,7.30
2018-09-10T14:24:15.789Z,6.28
2018-09-10T14:26:43.213Z,7.23
2018-09-10T14:29:10.798Z,6.05
2018-09-10T14:31:38.609Z,8.75
2018-09-10T14:34:06.364Z,7.73
2018-09-10T14:36:34.516Z,9.05
2018-09-10T14:39:03.113Z,8.30
2018-09-10T14:41:30.503Z,6.00
2018-09-10T14:43:58.152Z,7.47
2018-09-10T14:46:25.681Z,7.37
2018-09-10T14:48:54.015Z,8.43
2018-09-10T14:51:21.432Z,7.40
2018-09-10T14:53:49.261Z,7.05
2018-09-10T14:56:16.955Z,6.35
2018-09-10T14:58:44.625Z,7.25
2018-09-10T15:01:12.607Z,7.67
2018-09-10T15:03:42.743Z,10.28
2018-09-10T15:06:10.721Z,6.70
2018-09-10T15:08:38.310Z,5.67
2018-09-10T15:11:05.729Z,5.62
2018-09-10T15:13:33.328Z,6.17
2018-09-10T15:16:00.875Z,11.43
2018-09-10T15:18:28.369Z,6.78
2018-09-10T15:20:55.722Z,7.37
2018-09-10T15:23:23.291Z,8.25
2018-09-10T15:25:50.751Z,5.83
2018-09-10T15:28:18.138Z,7.03
2018-09-10T15:30:45.509Z,6.75
2018-09-10T15:33:12.879Z,6.33
2018-09-10T15:35:40.477Z,6.08
2018-09-10T15:38:08.045Z,5.07
2018-09-10T15:40:35.467Z,8.03
2018-09-10T15:43:02.993Z,8.43
2018-09-10T15:45:30.598Z,5.45
2018-09-10T15:47:58.015Z,7.20
2018-09-10T15:50:25.600Z,6.87
2018-09-10T15:52:53.002Z,6.25
2018-09-10T15:55:20.574Z,7.58
2018-09-10T15:57:47.940Z,8.80
2018-09-10T16:00:15.330Z,6.58
2018-09-10T16:02:43.066Z,9.88
2018-09-10T16:05:10.484Z,9.18
2018-09-10T16:07:38.116Z,7.53
2018-09-10T16:10:05.854Z,8.03
2018-09-10T16:12:33.231Z,4.95
2018-09-10T16:15:01.134Z,7.40
2018-09-10T16:17:28.789Z,7.97
2018-09-10T16:19:56.245Z,10.07
2018-09-10T16:22:23.653Z,7.42
2018-09-10T16:24:51.441Z,13.20
2018-09-10T16:27:18.814Z,14.33
2018-09-10T16:29:46.914Z,5.90
2018-09-10T16:32:14.623Z,7.57
2018-09-10T16:34:42.624Z,6.40
2018-09-10T16:37:09.981Z,5.85
2018-09-10T16:39:37.397Z,7.92
2018-09-10T16:42:04.843Z,8.83
2018-09-10T16:44:32.206Z,6.87
2018-09-10T16:46:59.708Z,8.40
2018-09-10T16:49:27.687Z,9.70
2018-09-10T16:51:55.550Z,6.10
2018-09-10T16:54:23.466Z,7.03
2018-09-10T16:56:50.877Z,7.33
2018-09-10T16:59:18.245Z,7.87
2018-09-10T17:01:45.627Z,7.15
2018-09-10T17:04:13.034Z,7.62
2018-09-10T17:06:41.013Z,8.20
2018-09-10T17:09:09.296Z,14.38
2018-09-10T17:11:37.050Z,12.37
2018-09-10T17:14:04.693Z,7.58
2018-09-10T17:16:32.446Z,8.40
2018-09-10T17:19:00.228Z,16.73
2018-09-10T17:21:28.188Z,9.65
2018-09-10T17:23:55.722Z,6.92
2018-09-10T17:26:23.139Z,7.65
2018-09-10T17:28:50.547Z,7.23
2018-09-10T17:31:18.003Z,9.08
2018-09-10T17:33:45.607Z,7.78
2018-09-10T17:36:13.092Z,8.00
2018-09-10T17:38:40.694Z,7.67
2018-09-10T17:41:08.237Z,8.23
2018-09-10T17:43:35.930Z,13.90
2018-09-10T17:46:04.358Z,10.18
2018-09-10T17:48:31.713Z,10.63
2018-09-10T17:51:00.669Z,6.60
2018-09-10T17:53:29.964Z,9.95
2018-09-10T17:55:58.573Z,10.63
2018-09-10T17:58:25.947Z,6.10
2018-09-10T18:00:53.395Z,7.72
2018-09-10T18:03:21.463Z,13.28
2018-09-10T18:05:49.467Z,13.25
2018-09-10T18:08:16.862Z,7.70
2018-09-10T18:11:11.348Z,10.70
2018-09-10T18:13:38.862Z,10.80
2018-09-10T18:16:06.712Z,9.98
2018-09-10T18:18:34.101Z,6.92
2018-09-10T18:21:01.645Z,6.12
2018-09-10T18:23:29.081Z,10.85
2018-09-10T18:25:56.536Z,9.70
2018-09-10T18:28:25.045Z,10.75
2018-09-10T18:30:52.604Z,6.17
2018-09-10T18:33:20.064Z,8.00
2018-09-10T18:35:48.123Z,6.40
2018-09-10T18:38:17.077Z,11.57
2018-09-10T18:40:44.573Z,7.47
2018-09-10T18:43:11.977Z,7.05
2018-09-10T18:45:39.410Z,7.85
2018-09-10T18:48:06.816Z,7.85
2018-09-10T18:50:34.238Z,8.30
2018-09-10T18:53:01.633Z,6.92
2018-09-10T18:55:29.088Z,8.05
2018-09-10T18:57:56.735Z,7.47
2018-09-10T19:00:24.480Z,4.90
2018-09-10T19:02:51.916Z,6.35
2018-09-10T19:05:19.282Z,8.23
2018-09-10T19:07:46.813Z,9.25
2018-09-10T19:10:14.298Z,7.20
2018-09-10T19:12:41.946Z,4.95
2018-09-10T19:15:09.380Z,6.55
2018-09-10T19:17:36.885Z,6.47
2018-09-10T19:20:04.427Z,12.82
2018-09-10T19:22:31.764Z,10.15
2018-09-10T19:24:59.502Z,8.80
2018-09-10T19:27:26.914Z,8.55
2018-09-10T19:29:54.362Z,13.85
2018-09-10T19:32:21.785Z,12.13
2018-09-10T19:34:49.642Z,9.65
2018-09-10T19:37:17.402Z,9.48
2018-09-10T19:39:45.489Z,10.38
2018-09-10T19:42:12.941Z,9.50
2018-09-10T19:44:40.304Z,8.53
2018-09-10T19:47:07.765Z,8.43
2018-09-10T19:49:35.247Z,8.23
2018-09-10T19:52:02.665Z,8.38
2018-09-10T19:54:30.430Z,7.30
2018-09-10T19:56:57.829Z,6.90
2018-09-10T19:59:25.269Z,9.88
2018-09-10T20:01:52.670Z,8.90
2018-09-10T20:04:20.072Z,6.67
2018-09-10T20:06:47.486Z,8.23
2018-09-10T20:09:15.160Z,5.75
2018-09-10T20:11:42.525Z,7.15
2018-09-10T20:14:10.119Z,5.45
2018-09-10T20:16:37.528Z,8.50
2018-09-10T20:19:05.077Z,5.17
2018-09-10T20:21:32.904Z,8.33
2018-09-10T20:24:00.328Z,7.30
2018-09-10T20:26:28.117Z,8.48
2018-09-10T20:28:55.545Z,5.62
2018-09-10T20:31:23.484Z,8.50
2018-09-10T20:33:56.293Z,9.85
2018-09-10T20:36:23.860Z,6.92
2018-09-10T20:38:51.530Z,7.85
2018-09-10T20:41:19.056Z,7.20
2018-09-10T20:43:46.591Z,10.08
2018-09-10T20:46:14.265Z,6.62
2018-09-10T20:48:41.866Z,8.65
2018-09-10T20:51:09.935Z,5.60
2018-09-10T20:53:37.567Z,8.05
2018-09-10T20:56:05.266Z,7.93
2018-09-10T20:58:32.609Z,9.28
2018-09-10T21:01:00.487Z,12.70
2018-09-10T21:03:27.843Z,5.97
2018-09-10T21:05:55.480Z,8.13
2018-09-10T21:08:22.890Z,6.92
2018-09-10T21:10:50.538Z,6.30
2018-09-10T21:13:18.025Z,8.07
2018-09-10T21:15:45.407Z,7.87
2018-09-10T21:18:12.838Z,10.43
2018-09-10T21:20:40.933Z,7.37
2018-09-10T21:23:08.529Z,5.50
2018-09-10T21:25:35.919Z,6.62
2018-09-10T21:28:03.318Z,6.50
2018-09-10T21:30:31.819Z,9.95
2018-09-10T21:32:59.537Z,5.40
2018-09-10T21:35:26.872Z,9.43
2018-09-10T21:37:54.224Z,7.25
2018-09-10T21:40:21.981Z,6.90
2018-09-10T21:42:49.320Z,6.60
2018-09-10T21:45:16.742Z,10.00
2018-09-10T21:47:45.826Z,7.40
2018-09-10T21:50:13.752Z,7.83
2018-09-10T21:52:41.369Z,7.20
2018-09-10T21:55:08.958Z,10.03
2018-09-10T21:57:36.433Z,6.67
2018-09-10T22:00:03.918Z,5.50
2018-09-10T22:02:31.572Z,9.60
2018-09-10T22:04:59.296Z,6.62
2018-09-10T22:07:26.953Z,6.70
2018-09-10T22:09:54.535Z,5.60
2018-09-10T22:12:22.188Z,6.25
2018-09-10T22:14:49.857Z,6.77
2018-09-10T22:17:17.188Z,8.60
2018-09-10T22:19:44.810Z,9.78
2018-09-10T22:22:12.540Z,7.08
2018-09-10T22:24:40.361Z,6.67
2018-09-10T22:27:07.694Z,7.08
2018-09-10T22:29:35.412Z,6.35
2018-09-10T22:32:05.591Z,9.13
2018-09-10T22:34:33.002Z,9.03
2018-09-10T22:37:00.680Z,8.75
2018-09-10T22:39:28.407Z,8.10
2018-09-10T22:41:55.780Z,9.13
2018-09-10T22:44:23.256Z,7.08
2018-09-10T22:46:50.565Z,8.48
2018-09-10T22:49:18.253Z,7.65
2018-09-10T22:51:45.736Z,8.40
2018-09-10T22:54:13.120Z,7.70
2018-09-10T22:56:40.533Z,9.13
2018-09-10T22:59:08.213Z,8.25
2018-09-10T23:01:35.614Z,11.43
2018-09-10T23:04:03.302Z,9.63
2018-09-10T23:06:30.741Z,7.85
2018-09-10T23:08:58.134Z,9.05
2018-09-10T23:11:26.137Z,5.25
2018-09-10T23:13:53.557Z,8.28
2018-09-10T23:16:21.171Z,7.47
2018-09-10T23:18:48.861Z,8.83
2018-09-10T23:21:16.242Z,11.12
2018-09-10T23:23:43.602Z,9.37
2018-09-10T23:26:11.150Z,10.18
2018-09-10T23:28:38.619Z,10.82
2018-09-10T23:31:06.466Z,12.40
2018-09-10T23:33:34.132Z,8.88
2018-09-10T23:36:01.490Z,6.30
2018-09-10T23:38:28.892Z,6.42
2018-09-10T23:40:56.680Z,11.68
2018-09-10T23:43:23.992Z,13.22
2018-09-10T23:45:51.523Z,18.50
2018-09-10T23:48:19.183Z,10.30
2018-09-10T23:50:46.607Z,10.10
2018-09-10T23:53:14.509Z,10.13
2018-09-10T23:55:41.859Z,10.53
2018-09-10T23:58:09.269Z,7.53
